createdAt,value
2023-04-03T00:02:11.778Z,8.05
2023-04-03T00:04:39.567Z,8.48
2023-04-03T00:07:07.322Z,8.45
2023-04-03T00:09:35.073Z,8.84
2023-04-03T00:12:02.795Z,9.13
2023-04-03T00:14:30.462Z,7.87
2023-04-03T00:16:58.178Z,8.25
2023-04-03T00:19:27.279Z,8.55
2023-04-03T00:21:55.454Z,8.18
2023-04-03T00:24:23.428Z,7.66
2023-04-03T00:26:51.179Z,7.64
2023-04-03T00:29:18.978Z,7.65
2023-04-03T00:31:46.763Z,8.10
2023-04-03T00:34:14.392Z,8.02
2023-04-03T00:36:43.772Z,7.94
2023-04-03T00:39:11.445Z,7.50
2023-04-03T00:41:39.105Z,7.85
2023-04-03T00:44:22.145Z,7.65
2023-04-03T00:46:49.823Z,7.71
2023-04-03T00:49:17.430Z,7.77
2023-04-03T00:51:46.536Z,7.15
2023-04-03T00:54:14.501Z,7.91
2023-04-03T00:56:48.766Z,7.26
2023-04-03T00:59:19.311Z,7.24
2023-04-03T01:01:47.120Z,7.38
2023-04-03T01:04:29.135Z,7.55
2023-04-03T01:07:00.604Z,7.15
2023-04-03T01:09:28.447Z,7.01
2023-04-03T01:11:56.117Z,7.12
2023-04-03T01:14:23.757Z,7.47
2023-04-03T01:16:55.238Z,7.75
2023-04-03T01:19:24.099Z,7.01
2023-04-03T01:22:15.968Z,7.48
2023-04-03T01:24:43.606Z,7.47
2023-04-03T01:27:13.117Z,7.69
2023-04-03T01:29:42.394Z,7.23
2023-04-03T01:32:11.507Z,8.07
2023-04-03T01:34:39.260Z,8.11
2023-04-03T01:37:07.053Z,7.31
2023-04-03T01:39:34.730Z,6.93
2023-04-03T01:42:02.349Z,6.78
2023-04-03T01:44:30.073Z,6.52
2023-04-03T01:46:57.767Z,6.60
2023-04-03T01:49:26.941Z,6.76
2023-04-03T01:51:54.591Z,7.04
2023-04-03T01:54:22.279Z,6.29
2023-04-03T01:56:49.936Z,6.76
2023-04-03T01:59:19.094Z,6.35
2023-04-03T02:01:47.014Z,6.57
2023-04-03T02:04:15.259Z,6.37
2023-04-03T02:06:44.368Z,6.60
2023-04-03T02:09:12.104Z,6.23
2023-04-03T02:11:39.732Z,6.83
2023-04-03T02:14:07.729Z,6.15
2023-04-03T02:16:35.423Z,6.49
2023-04-03T02:19:03.138Z,6.11
2023-04-03T02:21:30.920Z,6.30
2023-04-03T02:24:00.073Z,6.60
2023-04-03T02:26:27.844Z,7.19
2023-04-03T02:28:55.533Z,7.33
2023-04-03T02:31:23.281Z,7.79
2023-04-03T02:33:51.121Z,7.18
2023-04-03T02:36:19.114Z,6.36
2023-04-03T02:38:47.327Z,6.58
2023-04-03T02:41:16.374Z,6.20
2023-04-03T02:43:43.990Z,6.76
2023-04-03T02:46:11.812Z,6.52
2023-04-03T02:48:39.606Z,6.38
2023-04-03T02:51:07.497Z,6.37
2023-04-03T02:53:35.130Z,6.71
2023-04-03T02:56:02.759Z,6.06
2023-04-03T02:58:31.779Z,7.02
2023-04-03T03:00:59.474Z,7.04
2023-04-03T03:03:27.242Z,6.29
2023-04-03T03:06:03.516Z,6.00
2023-04-03T03:08:31.554Z,6.21
2023-04-03T03:10:59.220Z,6.12
2023-04-03T03:13:27.192Z,5.83
2023-04-03T03:15:56.387Z,5.93
2023-04-03T03:18:24.104Z,5.84
2023-04-03T03:20:53.610Z,5.85
2023-04-03T03:23:21.828Z,6.16
2023-04-03T03:25:49.529Z,5.58
2023-04-03T03:28:17.226Z,5.50
2023-04-03T03:30:44.854Z,6.26
2023-04-03T03:33:13.908Z,5.70
2023-04-03T03:35:41.970Z,5.62
2023-04-03T03:38:09.651Z,5.55
2023-04-03T03:40:37.294Z,5.81
2023-04-03T03:43:05.301Z,5.24
2023-04-03T03:45:33.269Z,5.85
2023-04-03T03:48:01.265Z,5.66
2023-04-03T03:50:30.405Z,5.69
2023-04-03T03:52:58.248Z,5.10
2023-04-03T03:55:26.134Z,5.49
2023-04-03T03:57:53.862Z,5.59
2023-04-03T04:00:21.734Z,5.96
2023-04-03T04:02:49.564Z,5.29
2023-04-03T04:05:17.411Z,5.40
2023-04-03T04:07:46.423Z,5.90
2023-04-03T04:10:14.803Z,5.17
2023-04-03T04:12:42.549Z,5.31
2023-04-03T04:15:11.566Z,5.42
2023-04-03T04:17:39.208Z,6.33
2023-04-03T04:20:07.684Z,5.62
2023-04-03T04:22:35.312Z,5.49
2023-04-03T04:25:04.990Z,5.83
2023-04-03T04:27:32.636Z,5.63
2023-04-03T04:30:00.352Z,5.40
2023-04-03T04:32:28.020Z,5.22
2023-04-03T04:34:55.879Z,5.28
2023-04-03T04:37:23.658Z,5.72
2023-04-03T04:39:51.333Z,5.38
2023-04-03T04:42:20.365Z,5.74
2023-04-03T04:44:47.997Z,5.20
2023-04-03T04:47:15.802Z,5.07
2023-04-03T04:49:59.178Z,5.42
2023-04-03T04:52:26.794Z,5.20
2023-04-03T04:55:17.548Z,5.19
2023-04-03T04:57:46.587Z,5.42
2023-04-03T05:00:15.901Z,5.10
2023-04-03T05:02:43.574Z,5.25
2023-04-03T05:05:11.458Z,5.37
2023-04-03T05:07:39.232Z,5.01
2023-04-03T05:10:08.312Z,5.81
2023-04-03T05:12:36.374Z,4.88
2023-04-03T05:15:06.335Z,4.95
2023-04-03T05:17:34.031Z,5.66
2023-04-03T05:20:01.780Z,4.82
2023-04-03T05:22:29.400Z,4.82
2023-04-03T05:24:57.014Z,5.65
2023-04-03T05:27:25.573Z,6.08
2023-04-03T05:29:54.886Z,5.38
2023-04-03T05:32:24.400Z,5.61
2023-04-03T05:34:52.726Z,5.68
2023-04-03T05:37:20.566Z,5.87
2023-04-03T05:39:48.644Z,5.88
2023-04-03T05:42:16.905Z,5.38
2023-04-03T05:44:45.225Z,6.01
2023-04-03T05:47:13.317Z,5.81
2023-04-03T05:49:42.653Z,5.84
2023-04-03T05:52:15.940Z,5.75
2023-04-03T05:54:44.068Z,5.84
2023-04-03T05:57:12.989Z,5.75
2023-04-03T05:59:40.677Z,5.76
2023-04-03T06:02:08.547Z,5.93
2023-04-03T06:04:36.334Z,6.26
2023-04-03T06:07:05.544Z,6.06
2023-04-03T06:09:33.266Z,6.65
2023-04-03T06:12:16.137Z,5.77
2023-04-03T06:14:43.788Z,6.07
2023-04-03T06:17:13.520Z,6.09
2023-04-03T06:19:45.450Z,6.01
2023-04-03T06:22:15.057Z,6.02
2023-04-03T06:24:42.834Z,6.22
2023-04-03T06:27:11.904Z,6.72
2023-04-03T06:33:16.055Z,6.58
2023-04-03T06:35:43.743Z,6.73
2023-04-03T06:38:13.242Z,7.34
2023-04-03T06:40:41.257Z,7.48
2023-04-03T06:43:09.463Z,6.81
2023-04-03T06:45:37.818Z,7.01
2023-04-03T06:51:20.951Z,7.32
2023-04-03T06:53:50.932Z,7.57
2023-04-03T06:56:35.253Z,7.25
2023-04-03T06:59:03.232Z,7.25
2023-04-03T07:01:32.034Z,7.84
2023-04-03T07:03:59.833Z,7.77
2023-04-03T07:06:28.610Z,7.38
2023-04-03T07:08:58.106Z,8.27
2023-04-03T07:11:25.941Z,7.90
2023-04-03T07:13:53.803Z,8.00
2023-04-03T07:18:59.071Z,8.70
2023-04-03T07:21:27.024Z,8.02
2023-04-03T07:23:55.346Z,8.91
2023-04-03T07:26:24.685Z,8.74
2023-04-03T07:28:52.549Z,8.47
2023-04-03T07:31:20.884Z,8.04
2023-04-03T07:33:51.040Z,8.88
2023-04-03T07:36:21.566Z,8.70
2023-04-03T07:38:50.332Z,8.85
2023-04-03T07:41:21.369Z,9.37
2023-04-03T07:43:51.812Z,8.76
2023-04-03T07:46:21.708Z,9.11
2023-04-03T07:48:49.818Z,9.35
2023-04-03T07:51:17.614Z,9.66
2023-04-03T07:53:45.341Z,9.62
2023-04-03T07:56:13.003Z,9.22
2023-04-03T07:58:47.753Z,9.36
2023-04-03T08:01:19.232Z,9.68
2023-04-03T08:03:47.049Z,9.74
2023-04-03T08:06:21.666Z,10.02
2023-04-03T08:08:54.520Z,9.71
2023-04-03T08:11:22.396Z,9.47
2023-04-03T08:13:51.405Z,9.80
2023-04-03T08:16:24.686Z,10.23
2023-04-03T08:18:53.389Z,9.63
2023-04-03T08:21:21.406Z,9.97
2023-04-03T08:23:55.145Z,9.94
2023-04-03T08:26:23.672Z,9.62
2023-04-03T08:28:51.596Z,10.33
2023-04-03T08:31:21.732Z,9.93
2023-04-03T08:33:50.278Z,10.28
2023-04-03T08:36:21.277Z,10.67
2023-04-03T08:38:49.673Z,10.82
2023-04-03T08:41:25.396Z,10.37
2023-04-03T08:44:00.062Z,10.62
2023-04-03T08:46:38.338Z,10.45
2023-04-03T08:49:07.112Z,10.04
2023-04-03T08:51:35.145Z,10.01
2023-04-03T08:54:05.553Z,10.04
2023-04-03T08:56:34.080Z,10.84
2023-04-03T08:59:06.418Z,11.01
2023-04-03T09:01:38.616Z,10.57
2023-04-03T09:04:12.882Z,10.96
2023-04-03T09:06:45.549Z,12.23
2023-04-03T09:09:16.746Z,11.22
2023-04-03T09:11:53.064Z,11.30
2023-04-03T09:14:26.113Z,10.96
2023-04-03T09:16:58.325Z,11.30
2023-04-03T09:19:45.676Z,11.16
2023-04-03T09:22:19.346Z,12.02
2023-04-03T09:24:47.924Z,11.68
2023-04-03T09:27:27.783Z,11.75
2023-04-03T09:29:56.576Z,11.50
2023-04-03T09:32:29.946Z,12.07
2023-04-03T09:35:03.803Z,11.98
2023-04-03T09:37:41.533Z,12.32
2023-04-03T09:40:39.638Z,11.84
2023-04-03T09:43:24.138Z,11.47
2023-04-03T09:45:53.055Z,12.49
2023-04-03T09:48:24.399Z,11.94
2023-04-03T09:50:59.902Z,11.91
2023-04-03T09:53:31.433Z,11.84
2023-04-03T09:55:59.997Z,12.16
2023-04-03T09:58:42.848Z,12.96
2023-04-03T10:01:26.059Z,12.67
2023-04-03T10:04:11.812Z,12.77
2023-04-03T10:06:47.735Z,12.14
2023-04-03T10:09:21.486Z,12.91
2023-04-03T10:12:05.726Z,12.65
2023-04-03T10:14:34.600Z,12.80
2023-04-03T10:17:13.307Z,12.39
2023-04-03T10:19:44.666Z,12.38
2023-04-03T10:22:21.278Z,12.91
2023-04-03T10:24:56.486Z,12.95
2023-04-03T10:27:32.204Z,13.57
2023-04-03T10:30:04.708Z,14.11
2023-04-03T10:32:45.295Z,13.86
2023-04-03T10:35:28.235Z,13.65
2023-04-03T10:38:03.960Z,12.70
2023-04-03T10:44:46.151Z,13.27
2023-04-03T10:47:18.711Z,13.67
2023-04-03T10:49:59.289Z,13.56
2023-04-03T10:52:35.460Z,12.25
2023-04-03T10:55:11.658Z,12.85
2023-04-03T10:57:40.029Z,12.84
2023-04-03T11:00:10.504Z,14.69
2023-04-03T11:02:40.926Z,12.75
2023-04-03T11:05:17.910Z,12.95
2023-04-03T11:07:50.276Z,13.12
2023-04-03T11:10:27.972Z,13.83
2023-04-03T11:15:40.985Z,13.77
2023-04-03T11:18:11.830Z,14.18
2023-04-03T11:20:41.030Z,13.08
2023-04-03T11:23:16.272Z,13.45
2023-04-03T11:25:45.912Z,13.45
2023-04-03T11:28:14.695Z,12.83
2023-04-03T11:30:47.652Z,13.49
2023-04-03T11:33:25.911Z,13.34
2023-04-03T11:35:55.183Z,14.05
2023-04-03T11:38:27.544Z,12.92
2023-04-03T11:40:56.597Z,14.27
2023-04-03T11:43:27.778Z,14.59
2023-04-03T11:45:59.695Z,12.46
2023-04-03T11:48:51.059Z,12.26
2023-04-03T11:51:42.661Z,13.35
2023-04-03T11:54:45.452Z,14.23
2023-04-03T11:57:48.033Z,13.56
2023-04-03T12:00:51.691Z,14.38
2023-04-03T12:03:51.981Z,15.64
2023-04-03T12:06:45.547Z,15.78
2023-04-03T12:09:25.766Z,15.85
2023-04-03T12:11:55.092Z,14.75
2023-04-03T12:14:25.287Z,14.52
2023-04-03T12:16:54.848Z,13.54
2023-04-03T12:19:42.506Z,14.18
2023-04-03T12:22:16.885Z,14.79
2023-04-03T12:24:46.310Z,15.24
2023-04-03T12:27:31.352Z,14.31
2023-04-03T12:30:04.547Z,14.80
2023-04-03T12:32:45.797Z,15.66
2023-04-03T12:35:21.691Z,15.34
2023-04-03T12:38:06.111Z,16.06
2023-04-03T12:40:38.098Z,13.81
2023-04-03T12:43:22.863Z,15.63
2023-04-03T12:45:56.000Z,14.70
2023-04-03T12:48:27.370Z,15.53
2023-04-03T12:50:57.000Z,15.32
2023-04-03T12:53:27.153Z,17.43
2023-04-03T12:55:56.413Z,15.59
2023-04-03T12:58:27.298Z,17.05
2023-04-03T13:01:03.541Z,16.66
2023-04-03T13:03:32.215Z,14.21
2023-04-03T13:06:02.871Z,14.45
2023-04-03T13:08:31.507Z,14.57
2023-04-03T13:11:02.620Z,13.86
2023-04-03T13:13:31.989Z,13.47
2023-04-03T13:16:00.754Z,13.22
2023-04-03T13:18:32.231Z,16.06
2023-04-03T13:21:04.724Z,17.73
2023-04-03T13:23:33.397Z,16.92
2023-04-03T13:26:04.546Z,19.27
2023-04-03T13:28:34.629Z,19.58
2023-04-03T13:31:06.561Z,19.75
2023-04-03T13:33:59.323Z,20.97
2023-04-03T13:36:30.555Z,17.64
2023-04-03T13:39:03.518Z,18.84
2023-04-03T13:41:32.926Z,18.67
2023-04-03T13:44:26.746Z,17.25
2023-04-03T13:46:56.225Z,14.45
2023-04-03T13:49:29.798Z,12.77
2023-04-03T13:52:07.411Z,12.38
2023-04-03T13:54:38.328Z,13.24
2023-04-03T13:57:14.344Z,14.38
2023-04-03T13:59:44.195Z,18.14
2023-04-03T14:02:19.680Z,16.50
2023-04-03T14:04:51.706Z,13.92
2023-04-03T14:07:21.143Z,14.83
2023-04-03T14:09:49.090Z,18.42
2023-04-03T14:12:30.036Z,20.51
2023-04-03T14:15:00.769Z,20.94
2023-04-03T14:17:29.482Z,18.66
2023-04-03T14:19:58.011Z,20.84
2023-04-03T14:22:27.789Z,21.89
2023-04-03T14:24:56.166Z,21.29
2023-04-03T14:27:25.478Z,20.48
2023-04-03T14:29:54.415Z,18.62
2023-04-03T14:32:25.496Z,20.31
2023-04-03T14:34:54.085Z,19.07
2023-04-03T14:37:24.643Z,19.87
2023-04-03T14:39:54.382Z,21.70
2023-04-03T14:42:24.593Z,19.36
2023-04-03T14:44:52.899Z,20.90
2023-04-03T14:47:31.341Z,22.25
2023-04-03T14:50:00.431Z,19.46
2023-04-03T14:52:30.113Z,20.56
2023-04-03T14:54:58.087Z,19.98
2023-04-03T14:57:27.167Z,22.44
2023-04-03T14:59:54.943Z,20.37
2023-04-03T15:02:29.424Z,21.44
2023-04-03T15:04:58.156Z,19.29
2023-04-03T15:07:26.728Z,18.13
2023-04-03T15:09:57.130Z,16.96
2023-04-03T15:12:25.065Z,17.20
2023-04-03T15:15:00.263Z,16.95
2023-04-03T15:17:31.167Z,17.21
2023-04-03T15:19:58.976Z,18.86
2023-04-03T15:22:26.662Z,18.79
2023-04-03T15:24:54.438Z,19.58
2023-04-03T15:27:22.150Z,20.41
2023-04-03T15:30:00.172Z,21.85
2023-04-03T15:32:30.434Z,22.60
2023-04-03T15:35:00.677Z,22.51
2023-04-03T15:37:28.346Z,24.02
2023-04-03T15:39:56.306Z,23.33
2023-04-03T15:42:23.968Z,19.95
2023-04-03T15:44:51.697Z,20.72
2023-04-03T15:47:19.491Z,20.63
2023-04-03T15:49:47.160Z,21.66
2023-04-03T15:52:16.307Z,19.15
2023-04-03T15:54:44.068Z,18.90
2023-04-03T15:57:11.939Z,19.66
2023-04-03T15:59:39.689Z,20.29
2023-04-03T16:02:08.625Z,22.43
2023-04-03T16:04:36.437Z,22.04
2023-04-03T16:07:04.444Z,19.60
2023-04-03T16:09:35.012Z,23.12
2023-04-03T16:12:03.051Z,20.89
2023-04-03T16:14:31.415Z,22.64
2023-04-03T16:17:00.125Z,23.33
2023-04-03T16:19:27.980Z,22.00
2023-04-03T16:21:56.001Z,21.34
2023-04-03T16:24:23.693Z,17.15
2023-04-03T16:26:54.330Z,15.38
2023-04-03T16:29:37.284Z,18.84
2023-04-03T16:32:05.437Z,17.95
2023-04-03T16:34:33.788Z,16.78
2023-04-03T16:37:01.700Z,19.63
2023-04-03T16:39:29.536Z,19.47
2023-04-03T16:41:59.144Z,19.78
2023-04-03T16:44:27.142Z,17.05
2023-04-03T16:46:54.990Z,16.48
2023-04-03T16:49:22.939Z,17.06
2023-04-03T16:51:51.384Z,16.10
2023-04-03T16:54:19.137Z,16.27
2023-04-03T16:56:47.462Z,16.96
2023-04-03T16:59:16.565Z,17.21
2023-04-03T17:01:44.404Z,16.01
2023-04-03T17:04:12.228Z,15.86
2023-04-03T17:06:40.359Z,14.68
2023-04-03T17:09:08.246Z,15.11
2023-04-03T17:14:04.160Z,15.77
2023-04-03T17:16:35.164Z,14.74
2023-04-03T17:19:03.111Z,13.19
2023-04-03T17:21:30.963Z,13.14
2023-04-03T17:24:02.366Z,14.41
2023-04-03T17:26:30.863Z,13.40
2023-04-03T17:28:58.523Z,13.20
2023-04-03T17:31:26.288Z,11.77
2023-04-03T17:33:55.471Z,12.13
2023-04-03T17:36:23.437Z,11.12
2023-04-03T17:38:52.240Z,11.09
2023-04-03T17:41:19.912Z,11.42
2023-04-03T17:43:47.960Z,11.00
2023-04-03T17:46:16.813Z,11.22
2023-04-03T17:48:45.497Z,11.06
2023-04-03T17:51:17.152Z,10.86
2023-04-03T17:53:45.511Z,10.92
2023-04-03T17:56:15.222Z,10.81
2023-04-03T18:01:28.353Z,10.68
2023-04-03T18:03:58.007Z,10.60
2023-04-03T18:06:28.975Z,11.11
2023-04-03T18:08:59.560Z,10.30
2023-04-03T18:11:28.754Z,10.06
2023-04-03T18:14:00.274Z,10.61
2023-04-03T18:16:29.761Z,10.51
2023-04-03T18:19:17.658Z,10.96
2023-04-03T18:21:50.437Z,11.02
2023-04-03T18:24:20.152Z,10.93
2023-04-03T18:26:51.311Z,11.18
2023-04-03T18:29:19.185Z,10.81
2023-04-03T18:31:50.375Z,10.78
2023-04-03T18:34:18.068Z,10.60
2023-04-03T18:36:46.139Z,10.67
2023-04-03T18:39:15.761Z,10.51
2023-04-03T18:41:43.651Z,10.07
2023-04-03T18:44:14.616Z,10.05
2023-04-03T18:46:42.420Z,10.31
2023-04-03T18:49:10.802Z,10.12
2023-04-03T18:51:39.920Z,9.84
2023-04-03T18:54:09.747Z,10.10
2023-04-03T18:56:39.356Z,10.04
2023-04-03T18:59:07.145Z,10.07
2023-04-03T19:01:35.012Z,9.73
2023-04-03T19:04:02.842Z,10.13
2023-04-03T19:06:30.802Z,9.45
2023-04-03T19:08:59.700Z,9.87
2023-04-03T19:11:30.064Z,9.29
2023-04-03T19:14:14.300Z,9.37
2023-04-03T19:16:43.404Z,9.65
2023-04-03T19:19:11.166Z,9.21
2023-04-03T19:21:41.720Z,9.13
2023-04-03T19:24:09.948Z,9.53
2023-04-03T19:26:37.721Z,9.12
2023-04-03T19:29:06.854Z,9.01
2023-04-03T19:31:36.804Z,9.54
2023-04-03T19:34:04.989Z,9.18
2023-04-03T19:36:33.662Z,9.36
2023-04-03T19:39:01.689Z,8.91
2023-04-03T19:41:32.211Z,8.56
2023-04-03T19:43:59.936Z,8.69
2023-04-03T19:46:30.155Z,9.04
2023-04-03T19:48:58.699Z,8.58
2023-04-03T19:51:26.495Z,8.86
2023-04-03T19:53:54.639Z,8.96
2023-04-03T19:56:23.529Z,8.73
2023-04-03T19:58:54.183Z,8.27
2023-04-03T20:01:22.631Z,8.47
2023-04-03T20:03:52.216Z,8.67
2023-04-03T20:06:20.118Z,9.29
2023-04-03T20:08:47.849Z,8.84
2023-04-03T20:11:15.554Z,8.34
2023-04-03T20:13:43.273Z,8.14
2023-04-03T20:16:11.064Z,8.92
2023-04-03T20:18:39.570Z,8.53
2023-04-03T20:21:08.940Z,8.93
2023-04-03T20:26:24.619Z,8.04
2023-04-03T20:28:52.405Z,7.95
2023-04-03T20:31:20.157Z,8.18
2023-04-03T20:33:48.603Z,8.20
2023-04-03T20:36:18.237Z,8.19
2023-04-03T20:38:46.181Z,8.13
2023-04-03T20:41:13.920Z,8.30
2023-04-03T20:43:42.862Z,8.20
2023-04-03T20:46:10.846Z,8.32
2023-04-03T20:51:25.460Z,8.28
2023-04-03T20:53:53.155Z,8.41
2023-04-03T20:56:20.831Z,8.34
2023-04-03T20:58:49.588Z,8.18
2023-04-03T21:01:19.259Z,8.41
2023-04-03T21:03:48.119Z,8.76
2023-04-03T21:06:53.086Z,8.02
2023-04-03T21:09:58.530Z,8.00
2023-04-03T21:13:03.608Z,8.18
2023-04-03T21:15:51.974Z,7.54
2023-04-03T21:18:34.293Z,8.08
2023-04-03T21:21:03.103Z,7.84
2023-04-03T21:23:31.249Z,7.77
2023-04-03T21:25:59.023Z,8.30
2023-04-03T21:28:27.424Z,7.92
2023-04-03T21:30:55.390Z,8.18
2023-04-03T21:33:24.912Z,8.28
2023-04-03T21:35:57.779Z,8.22
2023-04-03T21:38:27.386Z,7.60
2023-04-03T21:40:57.761Z,7.72
2023-04-03T21:43:25.591Z,7.98
2023-04-03T21:45:54.387Z,7.64
2023-04-03T21:48:22.335Z,7.50
2023-04-03T21:50:52.526Z,7.56
2023-04-03T21:53:20.904Z,7.83
2023-04-03T21:55:55.381Z,7.77
2023-04-03T21:58:23.151Z,8.14
2023-04-03T22:00:51.100Z,7.47
2023-04-03T22:03:22.306Z,7.29
2023-04-03T22:05:51.434Z,7.37
2023-04-03T22:08:19.465Z,7.10
2023-04-03T22:10:47.529Z,7.46
2023-04-03T22:13:15.380Z,7.04
2023-04-03T22:15:44.111Z,6.82
2023-04-03T22:18:12.360Z,6.92
2023-04-03T22:20:40.184Z,6.96
2023-04-03T22:23:09.330Z,7.01
2023-04-03T22:25:37.017Z,7.24
2023-04-03T22:28:04.842Z,7.27
2023-04-03T22:30:32.549Z,7.16
2023-04-03T22:33:00.310Z,6.96
2023-04-03T22:35:27.988Z,6.79
2023-04-03T22:37:56.361Z,7.04
2023-04-03T22:40:25.596Z,7.07
2023-04-03T22:42:54.069Z,7.29
2023-04-03T22:45:21.726Z,6.83
2023-04-03T22:48:01.635Z,7.15
2023-04-03T22:50:29.688Z,6.84
2023-04-03T22:52:57.377Z,7.20
2023-04-03T22:55:26.668Z,7.40
2023-04-03T22:57:54.382Z,7.12
2023-04-03T23:00:22.181Z,6.84
2023-04-03T23:02:49.863Z,7.47
2023-04-03T23:05:17.882Z,7.18
2023-04-03T23:07:45.594Z,6.89
2023-04-03T23:10:13.381Z,6.98
2023-04-03T23:12:51.742Z,6.84
2023-04-03T23:15:19.687Z,6.55
2023-04-03T23:17:49.720Z,6.94
2023-04-03T23:20:17.655Z,6.65
2023-04-03T23:22:45.670Z,6.59
2023-04-03T23:25:13.425Z,7.21
2023-04-03T23:27:41.346Z,6.70
2023-04-03T23:30:11.589Z,6.83
2023-04-03T23:32:39.276Z,6.83
2023-04-03T23:35:07.748Z,6.61
2023-04-03T23:37:35.975Z,6.85
2023-04-03T23:40:03.724Z,6.84
2023-04-03T23:42:31.461Z,6.68
2023-04-03T23:44:59.121Z,6.75
2023-04-03T23:47:28.554Z,6.43
2023-04-03T23:49:56.293Z,6.77
2023-04-03T23:52:24.008Z,6.81
2023-04-03T23:54:51.717Z,6.40
2023-04-03T23:57:19.489Z,6.59
2023-04-03T23:59:47.183Z,7.11
